Impacts TAF Board INFO
FOR SITUATIONAL AWARENESS. NOT TO BE USED FOR FLIGHT PLANNING PURPOSES.
IDs:

KCLT - Charlotte/Douglas In, NC, US

Issued at 0202 UTC 13 Dec 2017
Updated at 0336 UTC 13 Dec 2017
Potential Impact None Slight Moderate High
Time0252Z 13/04Z 13/05Z 13/06Z 13/07Z 13/08Z 13/09Z 13/10Z 13/11Z 13/12Z 13/13Z 13/14Z 13/15Z 13/16Z>>
Type OBS PRVL PRVL PRVL PRVL PRVL PRVL PRVL PRVL PRVL PRVL PRVL PRVL PRVL
VIS 10 >6 >6 >6 >6 >6 >6 >6 >6 >6 >6 >6 >6 >6
CIG -- -- -- -- -- -- -- -- -- -- -- -- -- --
Cover CLR SKC SKC SKC SKC SKC FEW FEW FEW FEW FEW FEW FEW FEW
FltCat VFR VFR VFR VFR VFR VFR VFR VFR VFR VFR VFR VFR VFR VFR
WX -- -- -- -- -- -- -- -- -- -- -- -- -- --
WDir 320 280 280 280 280 280 240 240 240 240 240 240 240 220
WSpd 6 10 10 10 10 10 7 7 7 7 7 7 7 10
WGst -- -- -- -- -- -- -- -- -- -- -- -- -- 18

Raw TAF
KCLT 130202Z 1302/1406 30011G22KT P6SM FEW250
  FM130300 28010KT P6SM SKC
  FM130900 24007KT P6SM FEW250
  FM131600 22010G18KT P6SM FEW110


Raw METAR
KCLT 130252Z 32006KT 10SM CLR 02/M10 A2985 RMK AO2 SLP108 T00171100 51015
KCLT 130152Z 31014G24KT 10SM CLR 03/M09 A2983 RMK AO2 SLP103 T00331094
KCLT 130052Z 34007KT 10SM CLR 03/M08 A2982 RMK AO2 SLP100 T00331078

METAR Board
Radar Display
Forecast Discussion

FOR SITUATIONAL AWARENESS. NOT TO BE USED FOR FLIGHT PLANNING PURPOSES.